Bettles

About
Name: Bettles
Identifier:  BTT/PABT
Serves:  Bettles, Alaska
Owner:  State of Alaska DOT&PF
Public/Private:  Public
Local Time:  17. Aug 21:31 AKDT
Description: Bettles Airport is a state-owned public-use airport located in Bettles, a city in the Yukon-Koyukuk Census Area of the U.S. state of Alaska.
Source: Wikipedia
Location
Runways
Identifier Length (m/ft) Surface
1/19 5,190/5,190 Turf/Gravel
Flights per Day
3 flights
Distance: 215km (133mi)
Punctuality
95% (0 flights per day delayed)
Delay Average: 262 minutes
Current Weather
 13 C (Humidity: 40%)
  0kt from variable
  Few clouds at 10,000 feet (3,048 meter)
  Scattered clouds at 14,000 feet (4,267 meter)
  16km (10 mi.)
 METAR PABT 180453Z VRB04KT 10SM FEW100 SCT140 13/00 A3051 RMK AO2 SLP343 T01330000 $

Current Flights

Departures
Number Departure To Airline
Arrivals
Number Arrival From Airline
 8V370 10:10  Fairbanks  Astral Aviation

Current Delays

Departures
N/A
Arrivals
N/A

Destinations

Top Destinations
Airport Flights
per week
Seats
per week
  Fairbanks (FAI) 0 - 0 0

Airlines & Planes

Top Airlines
Airline Flights
per Day
Seats
per Day
Top Plane Types
Model Flights Seats
Piper PA-31-350 0.0/day - 0